createdAt,value
2023-12-11T00:02:16.634Z,96015.00
2023-12-11T00:04:44.380Z,96016.22
2023-12-11T00:07:13.393Z,96015.03
2023-12-11T00:09:41.145Z,96020.94
2023-12-11T00:12:09.202Z,96029.69
2023-12-11T00:14:36.812Z,96032.72
2023-12-11T00:17:04.548Z,96025.38
2023-12-11T00:19:32.898Z,96030.69
2023-12-11T00:22:00.606Z,96027.41
2023-12-11T00:24:29.546Z,96034.94
2023-12-11T00:26:57.075Z,96044.13
2023-12-11T00:29:24.635Z,96038.00
2023-12-11T00:31:52.190Z,96034.56
2023-12-11T00:34:19.976Z,96043.53
2023-12-11T00:36:48.616Z,96037.03
2023-12-11T00:39:17.401Z,96037.44
2023-12-11T00:41:46.718Z,96044.78
2023-12-11T00:44:14.282Z,96037.22
2023-12-11T00:46:41.875Z,96040.28
2023-12-11T00:49:10.019Z,96051.91
2023-12-11T00:51:37.756Z,96046.63
2023-12-11T00:54:05.574Z,96057.22
2023-12-11T00:56:33.138Z,96056.19
2023-12-11T00:59:02.088Z,96056.56
2023-12-11T01:01:29.801Z,96059.22
2023-12-11T01:03:57.427Z,96071.28
2023-12-11T01:06:25.007Z,96075.75
2023-12-11T01:08:52.567Z,96063.53
2023-12-11T01:11:20.124Z,96050.09
2023-12-11T01:13:47.732Z,96042.31
2023-12-11T01:16:16.779Z,96044.13
2023-12-11T01:18:45.196Z,96054.16
2023-12-11T01:21:12.877Z,96066.75
2023-12-11T01:23:41.233Z,96042.91
2023-12-11T01:26:08.779Z,96049.81
2023-12-11T01:28:36.750Z,96053.69
2023-12-11T01:31:04.616Z,96057.56
2023-12-11T01:33:33.795Z,96060.22
2023-12-11T01:36:01.390Z,96045.09
2023-12-11T01:38:28.943Z,96041.03
2023-12-11T01:40:56.618Z,96048.03
2023-12-11T01:43:25.995Z,96040.06
2023-12-11T01:46:02.077Z,96043.53
2023-12-11T01:48:30.154Z,96035.22
2023-12-11T01:50:59.233Z,96045.75
2023-12-11T01:53:27.885Z,96044.31
2023-12-11T01:55:55.773Z,96035.97
2023-12-11T01:58:23.737Z,96053.50
2023-12-11T02:00:51.374Z,96051.81
2023-12-11T02:03:19.815Z,96037.22
2023-12-11T02:05:47.676Z,96062.81
2023-12-11T02:08:17.776Z,96064.66
2023-12-11T02:10:45.670Z,96063.84
2023-12-11T02:13:13.406Z,96068.34
2023-12-11T02:15:42.087Z,96068.34
2023-12-11T02:18:10.925Z,96069.78
2023-12-11T02:20:39.512Z,96063.91
2023-12-11T02:23:10.497Z,96065.94
2023-12-11T02:25:39.795Z,96072.25
2023-12-11T02:28:08.882Z,96077.56
2023-12-11T02:30:38.711Z,96082.66
2023-12-11T02:33:06.787Z,96077.94
2023-12-11T02:35:34.434Z,96075.28
2023-12-11T02:38:01.972Z,96080.19
2023-12-11T02:40:29.548Z,96077.91
2023-12-11T02:42:57.179Z,96079.91
2023-12-11T02:45:26.099Z,96090.31
2023-12-11T02:47:58.091Z,96083.53
2023-12-11T02:50:25.862Z,96082.28
2023-12-11T02:52:53.410Z,96085.56
2023-12-11T02:55:20.938Z,96083.28
2023-12-11T02:57:48.532Z,96087.13
2023-12-11T03:00:16.300Z,96092.00
2023-12-11T03:02:45.295Z,96099.50
2023-12-11T03:05:12.881Z,96098.06
2023-12-11T03:07:40.417Z,96094.75
2023-12-11T03:10:09.427Z,96086.59
2023-12-11T03:12:37.166Z,96094.13
2023-12-11T03:15:05.769Z,96089.63
2023-12-11T03:17:33.592Z,96088.38
2023-12-11T03:20:02.864Z,96083.47
2023-12-11T03:22:30.581Z,96076.50
2023-12-11T03:24:58.212Z,96073.97
2023-12-11T03:27:25.763Z,96073.97
2023-12-11T03:29:53.332Z,96055.31
2023-12-11T03:32:20.859Z,96067.72
2023-12-11T03:34:48.594Z,96071.41
2023-12-11T03:37:17.507Z,96076.31
2023-12-11T03:39:45.121Z,96080.00
2023-12-11T03:42:12.665Z,96075.56
2023-12-11T03:44:40.218Z,96072.13
2023-12-11T03:47:07.816Z,96078.09
2023-12-11T03:49:35.552Z,96085.88
2023-12-11T03:52:03.604Z,96086.53
2023-12-11T03:54:32.667Z,96070.44
2023-12-11T03:57:00.257Z,96074.34
2023-12-11T03:59:27.831Z,96072.31
2023-12-11T04:01:55.533Z,96081.69
2023-12-11T04:04:23.298Z,96085.19
2023-12-11T04:06:50.934Z,96083.13
2023-12-11T04:09:18.555Z,96081.25
2023-12-11T04:11:47.492Z,96081.25
2023-12-11T04:14:15.043Z,96077.81
2023-12-11T04:16:43.705Z,96080.50
2023-12-11T04:19:12.397Z,96076.44
2023-12-11T04:21:40.205Z,96075.81
2023-12-11T04:24:07.852Z,96073.97
2023-12-11T04:26:35.668Z,96077.22
2023-12-11T04:29:04.541Z,96066.84
2023-12-11T04:31:32.119Z,96078.03
2023-12-11T04:33:59.795Z,96069.47
2023-12-11T04:36:27.588Z,96074.16
2023-12-11T04:38:55.119Z,96075.44
2023-12-11T04:41:22.722Z,96076.50
2023-12-11T04:43:50.274Z,96084.66
2023-12-11T04:46:19.321Z,96094.03
2023-12-11T04:48:46.926Z,96101.00
2023-12-11T04:51:14.807Z,96101.00
2023-12-11T04:53:42.343Z,96101.19
2023-12-11T04:56:10.868Z,96089.38
2023-12-11T04:58:38.404Z,96082.09
2023-12-11T05:01:06.259Z,96069.25
2023-12-11T05:03:35.277Z,96067.44
2023-12-11T05:06:02.860Z,96077.91
2023-12-11T05:08:30.859Z,96073.00
2023-12-11T05:10:58.535Z,96079.75
2023-12-11T05:13:26.073Z,96081.59
2023-12-11T05:15:53.703Z,96067.75
2023-12-11T05:18:21.579Z,96065.50
2023-12-11T05:20:50.521Z,96053.06
2023-12-11T05:23:18.062Z,96046.53
2023-12-11T05:25:45.620Z,96041.66
2023-12-11T05:28:13.255Z,96048.78
2023-12-11T05:30:40.959Z,96046.34
2023-12-11T05:33:08.619Z,96049.22
2023-12-11T05:35:36.273Z,96050.44
2023-12-11T05:38:05.171Z,96052.06
2023-12-11T05:40:32.758Z,96038.84
2023-12-11T05:43:00.367Z,96043.50
2023-12-11T05:45:28.089Z,96047.41
2023-12-11T05:47:55.653Z,96065.78
2023-12-11T05:50:23.733Z,96076.97
2023-12-11T05:52:51.378Z,96083.09
2023-12-11T05:55:20.345Z,96085.53
2023-12-11T05:57:49.074Z,96087.34
2023-12-11T06:00:17.631Z,96088.50
2023-12-11T06:02:45.210Z,96090.97
2023-12-11T06:05:13.375Z,96085.59
2023-12-11T06:07:41.870Z,96101.09
2023-12-11T06:10:09.919Z,96104.72
2023-12-11T06:12:38.853Z,96111.63
2023-12-11T06:15:07.482Z,96107.72
2023-12-11T06:17:35.486Z,96110.97
2023-12-11T06:20:04.610Z,96107.69
2023-12-11T06:22:32.275Z,96102.78
2023-12-11T06:24:59.955Z,96100.72
2023-12-11T06:27:29.143Z,96101.31
2023-12-11T06:29:58.332Z,96089.09
2023-12-11T06:32:26.373Z,96095.00
2023-12-11T06:34:54.236Z,96088.44
2023-12-11T06:37:21.987Z,96072.34
2023-12-11T06:39:50.117Z,96080.88
2023-12-11T06:42:17.742Z,96085.59
2023-12-11T06:44:45.295Z,96085.38
2023-12-11T06:47:14.742Z,96080.47
2023-12-11T06:49:43.593Z,96083.50
2023-12-11T06:52:11.426Z,96077.91
2023-12-11T06:54:39.047Z,96076.69
2023-12-11T06:57:06.871Z,96072.00
2023-12-11T06:59:34.437Z,96072.38
2023-12-11T07:02:02.181Z,96067.28
2023-12-11T07:04:30.291Z,96074.00
2023-12-11T07:06:58.355Z,96071.13
2023-12-11T07:09:26.565Z,96051.53
2023-12-11T07:11:54.181Z,96057.63
2023-12-11T07:14:21.749Z,96063.69
2023-12-11T07:16:49.274Z,96059.78
2023-12-11T07:19:16.987Z,96047.94
2023-12-11T07:21:46.635Z,96059.16
2023-12-11T07:24:14.201Z,96056.06
2023-12-11T07:26:41.800Z,96049.72
2023-12-11T07:29:09.714Z,96050.38
2023-12-11T07:31:37.401Z,96051.22
2023-12-11T07:34:05.053Z,96047.31
2023-12-11T07:36:32.699Z,96046.44
2023-12-11T07:39:01.625Z,96036.41
2023-12-11T07:41:29.236Z,96033.38
2023-12-11T07:43:56.800Z,96036.25
2023-12-11T07:46:24.397Z,96030.34
2023-12-11T07:48:53.102Z,96023.81
2023-12-11T07:51:21.392Z,96029.47
2023-12-11T07:53:49.313Z,96032.88
2023-12-11T07:56:21.878Z,96023.06
2023-12-11T07:58:49.524Z,96021.81
2023-12-11T08:01:17.397Z,96011.34
2023-12-11T08:03:45.646Z,96017.56
2023-12-11T08:06:13.690Z,96007.31
2023-12-11T08:08:44.422Z,96004.81
2023-12-11T08:11:22.853Z,96008.28
2023-12-11T08:13:50.873Z,96008.88
2023-12-11T08:16:19.088Z,96013.75
2023-12-11T08:18:48.147Z,96005.31
2023-12-11T08:21:17.341Z,96002.00
2023-12-11T08:23:45.845Z,96011.56
2023-12-11T08:26:13.908Z,96017.72
2023-12-11T08:28:42.821Z,96020.38
2023-12-11T08:31:11.114Z,96015.78
2023-12-11T08:33:38.892Z,96011.66
2023-12-11T08:36:07.391Z,96009.94
2023-12-11T08:38:35.121Z,95985.00
2023-12-11T08:41:02.760Z,95982.06
2023-12-11T08:43:30.461Z,95994.50
2023-12-11T08:45:59.514Z,95995.91
2023-12-11T08:48:28.784Z,95987.50
2023-12-11T08:50:56.814Z,95994.19
2023-12-11T08:53:24.932Z,95987.25
2023-12-11T08:55:52.642Z,95993.41
2023-12-11T08:58:20.340Z,96006.81
2023-12-11T09:00:48.350Z,96005.25
2023-12-11T09:03:17.341Z,95987.00
2023-12-11T09:05:45.036Z,95998.50
2023-12-11T09:08:12.671Z,95989.78
2023-12-11T09:10:41.966Z,95987.47
2023-12-11T09:13:09.641Z,95981.50
2023-12-11T09:15:37.605Z,95976.31
2023-12-11T09:18:07.445Z,95982.22
2023-12-11T09:20:36.484Z,95980.13
2023-12-11T09:23:04.133Z,95992.38
2023-12-11T09:25:33.053Z,95985.66
2023-12-11T09:28:01.564Z,95983.84
2023-12-11T09:30:29.720Z,95992.03
2023-12-11T09:32:57.543Z,95994.13
2023-12-11T09:35:25.349Z,95999.22
2023-12-11T09:37:54.318Z,95991.81
2023-12-11T09:40:22.193Z,95991.38
2023-12-11T09:42:51.948Z,95991.59
2023-12-11T09:45:22.612Z,95998.53
2023-12-11T09:48:04.528Z,95982.34
2023-12-11T09:50:39.070Z,95987.06
2023-12-11T09:53:09.362Z,95983.38
2023-12-11T09:55:37.038Z,95964.97
2023-12-11T09:58:05.904Z,95973.63
2023-12-11T10:00:33.695Z,95961.09
2023-12-11T10:03:03.033Z,95947.81
2023-12-11T10:05:31.898Z,95960.91
2023-12-11T10:07:59.613Z,95946.22
2023-12-11T10:10:31.924Z,95966.59
2023-12-11T10:13:00.084Z,95965.88
2023-12-11T10:15:28.882Z,95946.47
2023-12-11T10:18:07.970Z,95958.97
2023-12-11T10:20:36.875Z,95949.91
2023-12-11T10:23:15.183Z,95950.97
2023-12-11T10:25:45.757Z,95938.91
2023-12-11T10:28:13.677Z,95940.75
2023-12-11T10:30:52.287Z,95939.81
2023-12-11T10:33:20.774Z,95946.28
2023-12-11T10:35:48.878Z,95948.47
2023-12-11T10:38:22.992Z,95940.53
2023-12-11T10:40:53.259Z,95940.19
2023-12-11T10:43:21.206Z,95938.31
2023-12-11T10:45:51.719Z,95928.16
2023-12-11T10:48:21.979Z,95919.41
2023-12-11T10:50:50.135Z,95915.84
2023-12-11T10:53:18.348Z,95918.66
2023-12-11T10:55:46.510Z,95922.38
2023-12-11T10:58:15.693Z,95924.69
2023-12-11T11:00:43.706Z,95918.22
2023-12-11T11:03:12.423Z,95920.53
2023-12-11T11:05:40.590Z,95921.31
2023-12-11T11:08:25.735Z,95917.19
2023-12-11T11:10:56.978Z,95904.13
2023-12-11T11:13:30.311Z,95911.66
2023-12-11T11:15:58.252Z,95907.13
2023-12-11T11:18:25.924Z,95920.09
2023-12-11T11:21:13.181Z,95915.22
2023-12-11T11:23:44.645Z,95932.00
2023-12-11T11:26:35.720Z,95920.19
2023-12-11T11:29:05.953Z,95921.09
2023-12-11T11:31:52.608Z,95922.31
2023-12-11T11:34:45.751Z,95927.66
2023-12-11T11:37:15.818Z,95925.84
2023-12-11T11:39:59.829Z,95930.63
2023-12-11T11:42:27.856Z,95919.91
2023-12-11T11:44:57.547Z,95922.84
2023-12-11T11:47:26.570Z,95915.31
2023-12-11T11:49:54.730Z,95907.41
2023-12-11T11:52:26.819Z,95913.19
2023-12-11T11:54:57.189Z,95900.94
2023-12-11T11:57:28.976Z,95896.06
2023-12-11T11:59:57.278Z,95901.72
2023-12-11T12:02:27.342Z,95903.91
2023-12-11T12:04:55.309Z,95906.59
2023-12-11T12:07:23.948Z,95907.13
2023-12-11T12:09:53.127Z,95907.56
2023-12-11T12:12:20.763Z,95913.31
2023-12-11T12:14:48.315Z,95907.53
2023-12-11T12:17:16.080Z,95906.19
2023-12-11T12:19:45.001Z,95895.53
2023-12-11T12:22:14.629Z,95895.88
2023-12-11T12:24:43.955Z,95889.72
2023-12-11T12:27:13.694Z,95889.56
2023-12-11T12:29:41.967Z,95891.00
2023-12-11T12:32:10.519Z,95891.13
2023-12-11T12:34:39.350Z,95891.84
2023-12-11T12:37:08.903Z,95904.72
2023-12-11T12:39:36.788Z,95909.56
2023-12-11T12:42:04.737Z,95912.88
2023-12-11T12:44:32.888Z,95913.28
2023-12-11T12:47:02.938Z,95921.94
2023-12-11T12:49:32.987Z,95899.72
2023-12-11T12:52:01.557Z,95910.50
2023-12-11T12:54:48.505Z,95915.72
2023-12-11T12:57:17.508Z,95921.31
2023-12-11T12:59:45.309Z,95912.50
2023-12-11T13:02:14.911Z,95917.03
2023-12-11T13:04:53.126Z,95914.59
2023-12-11T13:07:23.276Z,95913.06
2023-12-11T13:09:53.403Z,95912.94
2023-12-11T13:12:22.097Z,95915.91
2023-12-11T13:14:50.855Z,95914.03
2023-12-11T13:17:18.538Z,95919.06
2023-12-11T13:19:46.317Z,95914.22
2023-12-11T13:22:15.040Z,95904.34
2023-12-11T13:24:42.717Z,95904.94
2023-12-11T13:27:11.684Z,95908.88
2023-12-11T13:29:39.221Z,95905.72
2023-12-11T13:32:07.929Z,95900.06
2023-12-11T13:34:35.604Z,95906.22
2023-12-11T13:37:03.451Z,95915.19
2023-12-11T13:39:31.099Z,95904.50
2023-12-11T13:41:58.719Z,95906.44
2023-12-11T13:44:27.623Z,95906.84
2023-12-11T13:46:55.192Z,95912.75
2023-12-11T13:49:23.011Z,95919.31
2023-12-11T13:51:50.966Z,95928.13
2023-12-11T13:54:18.571Z,95928.94
2023-12-11T13:56:47.750Z,95935.38
2023-12-11T13:59:16.485Z,95937.91
2023-12-11T14:01:45.488Z,95941.41
2023-12-11T14:04:13.494Z,95947.75
2023-12-11T14:06:42.843Z,95949.63
2023-12-11T14:09:11.026Z,95941.13
2023-12-11T14:11:38.614Z,95956.91
2023-12-11T14:14:06.241Z,95957.47
2023-12-11T14:16:34.021Z,95962.00
2023-12-11T14:19:03.934Z,95975.34
2023-12-11T14:21:31.675Z,95987.72
2023-12-11T14:23:59.269Z,95974.63
2023-12-11T14:26:26.846Z,95986.34
2023-12-11T14:28:54.397Z,95983.34
2023-12-11T14:31:22.035Z,95983.25
2023-12-11T14:33:49.793Z,95997.56
2023-12-11T14:36:25.086Z,96003.31
2023-12-11T14:38:54.708Z,96006.34
2023-12-11T14:41:22.290Z,96005.69
2023-12-11T14:43:49.844Z,95999.22
2023-12-11T14:46:17.480Z,96001.78
2023-12-11T14:48:46.367Z,95999.34
2023-12-11T14:51:14.012Z,96005.19
2023-12-11T14:53:42.992Z,96009.69
2023-12-11T14:56:11.128Z,96010.97
2023-12-11T14:58:38.701Z,96007.97
2023-12-11T15:01:06.496Z,96004.97
2023-12-11T15:03:34.269Z,96003.16
2023-12-11T15:06:02.964Z,96000.97
2023-12-11T15:08:31.100Z,96006.19
2023-12-11T15:11:00.281Z,95996.94
2023-12-11T15:13:28.771Z,96012.00
2023-12-11T15:15:57.414Z,96013.75
2023-12-11T15:18:25.686Z,96014.69
2023-12-11T15:20:53.405Z,96020.72
2023-12-11T15:23:21.077Z,96020.72
2023-12-11T15:25:48.689Z,96029.97
2023-12-11T15:28:17.628Z,96033.91
2023-12-11T15:30:45.991Z,96034.19
2023-12-11T15:33:13.709Z,96045.63
2023-12-11T15:35:41.285Z,96044.22
2023-12-11T15:38:08.855Z,96042.38
2023-12-11T15:40:36.450Z,96047.72
2023-12-11T15:43:04.846Z,96043.19
2023-12-11T15:45:33.792Z,96050.38
2023-12-11T15:48:03.248Z,96045.28
2023-12-11T15:50:31.935Z,96048.78
2023-12-11T15:52:59.697Z,96038.69
2023-12-11T15:55:27.498Z,96043.78
2023-12-11T15:57:55.242Z,96040.88
2023-12-11T16:00:23.017Z,96037.63
2023-12-11T16:02:53.743Z,96035.78
2023-12-11T16:05:21.450Z,96047.59
2023-12-11T16:07:49.074Z,96053.97
2023-12-11T16:10:16.744Z,96061.94
2023-12-11T16:12:44.447Z,96072.59
2023-12-11T16:15:12.796Z,96069.94
2023-12-11T16:17:40.394Z,96067.50
2023-12-11T16:20:10.851Z,96064.25
2023-12-11T16:22:38.509Z,96066.13
2023-12-11T16:25:11.651Z,96070.41
2023-12-11T16:27:39.841Z,96071.81
2023-12-11T16:30:10.673Z,96087.22
2023-12-11T16:32:38.363Z,96078.03
2023-12-11T16:35:07.686Z,96083.72
2023-12-11T16:37:36.768Z,96081.38
2023-12-11T16:40:07.381Z,96086.94
2023-12-11T16:42:35.841Z,96089.94
2023-12-11T16:45:04.132Z,96099.66
2023-12-11T16:47:31.772Z,96090.41
2023-12-11T16:50:06.586Z,96093.53
2023-12-11T16:52:37.558Z,96094.25
2023-12-11T16:55:07.560Z,96099.47
2023-12-11T16:57:35.321Z,96091.13
2023-12-11T17:00:03.465Z,96104.44
2023-12-11T17:02:31.253Z,96101.66
2023-12-11T17:04:58.965Z,96095.88
2023-12-11T17:07:26.728Z,96086.97
2023-12-11T17:09:56.769Z,96092.66
2023-12-11T17:12:24.499Z,96096.47
2023-12-11T17:14:54.529Z,96095.97
2023-12-11T17:17:23.497Z,96102.34
2023-12-11T17:19:51.189Z,96095.06
2023-12-11T17:22:19.206Z,96102.44
2023-12-11T17:24:46.783Z,96099.66
2023-12-11T17:27:15.765Z,96100.72
2023-12-11T17:29:43.640Z,96104.19
2023-12-11T17:32:11.230Z,96099.91
2023-12-11T17:34:39.019Z,96109.28
2023-12-11T17:37:06.694Z,96115.75
2023-12-11T17:39:34.248Z,96126.66
2023-12-11T17:42:01.842Z,96132.78
2023-12-11T17:44:30.998Z,96131.28
2023-12-11T17:46:58.544Z,96140.00
2023-12-11T17:49:26.984Z,96156.69
2023-12-11T17:51:54.826Z,96157.03
2023-12-11T17:54:22.962Z,96164.09
2023-12-11T17:56:50.511Z,96152.19
2023-12-11T17:59:18.127Z,96176.50
2023-12-11T18:01:47.189Z,96160.41
2023-12-11T18:04:17.010Z,96161.31
2023-12-11T18:06:44.754Z,96159.59
2023-12-11T18:09:12.760Z,96164.78
2023-12-11T18:11:40.287Z,96166.63
2023-12-11T18:14:07.850Z,96168.91
2023-12-11T18:16:35.479Z,96165.56
2023-12-11T18:19:04.747Z,96164.44
2023-12-11T18:21:32.411Z,96168.69
2023-12-11T18:23:59.987Z,96171.44
2023-12-11T18:26:27.537Z,96170.16
2023-12-11T18:28:55.702Z,96165.63
2023-12-11T18:31:23.552Z,96169.88
2023-12-11T18:33:51.284Z,96174.94
2023-12-11T18:36:20.264Z,96167.16
2023-12-11T18:38:47.846Z,96182.81
2023-12-11T18:41:22.440Z,96200.06
2023-12-11T18:43:49.992Z,96198.75
2023-12-11T18:46:19.125Z,96199.50
2023-12-11T18:48:47.109Z,96184.28
2023-12-11T18:51:26.289Z,96197.03
2023-12-11T18:53:53.917Z,96205.66
2023-12-11T18:56:23.322Z,96198.25
2023-12-11T18:58:51.083Z,96205.31
2023-12-11T19:01:18.752Z,96213.63
2023-12-11T19:03:46.610Z,96209.84
2023-12-11T19:06:14.525Z,96215.31
2023-12-11T19:08:43.453Z,96213.81
2023-12-11T19:11:13.335Z,96216.22
2023-12-11T19:13:40.920Z,96217.47
2023-12-11T19:16:09.407Z,96227.28
2023-12-11T19:18:37.638Z,96220.19
2023-12-11T19:21:06.334Z,96216.91
2023-12-11T19:23:33.933Z,96226.75
2023-12-11T19:26:02.830Z,96217.75
2023-12-11T19:28:30.456Z,96219.66
2023-12-11T19:30:58.238Z,96218.59
2023-12-11T19:33:26.000Z,96233.25
2023-12-11T19:35:53.689Z,96228.50
2023-12-11T19:38:21.245Z,96242.47
2023-12-11T19:40:48.780Z,96241.75
2023-12-11T19:43:17.675Z,96247.78
2023-12-11T19:45:45.265Z,96263.03
2023-12-11T19:48:13.058Z,96252.53
2023-12-11T19:50:40.700Z,96258.53
2023-12-11T19:53:08.284Z,96265.59
2023-12-11T19:55:35.972Z,96263.38
2023-12-11T19:58:03.637Z,96259.56
2023-12-11T20:00:32.603Z,96266.91
2023-12-11T20:03:00.278Z,96275.16
2023-12-11T20:05:28.029Z,96276.84
2023-12-11T20:07:55.752Z,96273.19
2023-12-11T20:10:23.485Z,96292.81
2023-12-11T20:12:51.211Z,96293.03
2023-12-11T20:15:19.182Z,96297.09
2023-12-11T20:17:48.315Z,96297.72
2023-12-11T20:20:16.023Z,96298.59
2023-12-11T20:22:45.124Z,96308.75
2023-12-11T20:25:12.847Z,96307.13
2023-12-11T20:27:40.467Z,96305.50
2023-12-11T20:30:09.381Z,96309.78
2023-12-11T20:32:37.319Z,96309.38
2023-12-11T20:35:07.321Z,96316.50
2023-12-11T20:37:37.508Z,96317.34
2023-12-11T20:40:05.806Z,96315.88
2023-12-11T20:42:33.470Z,96318.91
2023-12-11T20:45:01.137Z,96331.53
2023-12-11T20:47:28.890Z,96328.66
2023-12-11T20:49:56.713Z,96342.78
2023-12-11T20:52:25.752Z,96337.41
2023-12-11T20:54:53.353Z,96329.19
2023-12-11T20:57:20.920Z,96329.56
2023-12-11T20:59:48.480Z,96328.31
2023-12-11T21:02:16.155Z,96329.63
2023-12-11T21:04:44.152Z,96337.50
2023-12-11T21:07:11.778Z,96341.38
2023-12-11T21:09:43.628Z,96345.84
2023-12-11T21:12:11.214Z,96337.06
2023-12-11T21:14:39.308Z,96342.41
2023-12-11T21:17:06.876Z,96341.47
2023-12-11T21:19:34.601Z,96348.78
2023-12-11T21:22:02.188Z,96349.09
2023-12-11T21:24:29.755Z,96350.28
2023-12-11T21:26:58.658Z,96358.56
2023-12-11T21:29:26.258Z,96361.66
2023-12-11T21:31:53.932Z,96369.50
2023-12-11T21:34:21.575Z,96370.75
2023-12-11T21:36:49.152Z,96377.78
2023-12-11T21:39:17.913Z,96374.53
2023-12-11T21:41:45.555Z,96371.66
2023-12-11T21:44:14.479Z,96368.84
2023-12-11T21:46:42.014Z,96367.94
2023-12-11T21:49:09.725Z,96371.78
2023-12-11T21:51:37.340Z,96376.56
2023-12-11T21:54:05.305Z,96379.53
2023-12-11T21:56:34.335Z,96375.53
2023-12-11T21:59:01.908Z,96378.69
2023-12-11T22:01:30.867Z,96388.13
2023-12-11T22:03:58.490Z,96384.06
2023-12-11T22:06:26.059Z,96379.56
2023-12-11T22:08:53.801Z,96385.31
2023-12-11T22:11:23.187Z,96387.09
2023-12-11T22:13:50.793Z,96386.72
2023-12-11T22:16:18.401Z,96395.16
2023-12-11T22:18:48.695Z,96395.56
2023-12-11T22:21:22.732Z,96395.56
2023-12-11T22:23:50.360Z,96398.44
2023-12-11T22:26:18.037Z,96404.38
2023-12-11T22:28:46.293Z,96415.44
2023-12-11T22:31:13.937Z,96411.81
2023-12-11T22:33:41.637Z,96417.31
2023-12-11T22:36:10.752Z,96427.53
2023-12-11T22:38:38.793Z,96417.31
2023-12-11T22:41:06.420Z,96425.88
2023-12-11T22:43:34.031Z,96424.84
2023-12-11T22:46:01.666Z,96423.00
2023-12-11T22:48:29.370Z,96423.81
2023-12-11T22:50:56.981Z,96428.09
2023-12-11T22:53:25.844Z,96428.63
2023-12-11T22:55:53.408Z,96431.97
2023-12-11T22:58:21.009Z,96428.47
2023-12-11T23:00:48.656Z,96433.06
2023-12-11T23:03:16.250Z,96434.94
2023-12-11T23:05:43.929Z,96431.22
2023-12-11T23:08:11.580Z,96432.28
2023-12-11T23:10:40.557Z,96432.88
2023-12-11T23:13:08.214Z,96438.19
2023-12-11T23:15:35.802Z,96432.72
2023-12-11T23:18:03.446Z,96431.38
2023-12-11T23:20:31.037Z,96436.34
2023-12-11T23:22:58.639Z,96437.28
2023-12-11T23:25:26.241Z,96437.34
2023-12-11T23:27:55.162Z,96429.81
2023-12-11T23:30:22.726Z,96431.97
2023-12-11T23:32:50.384Z,96432.84
2023-12-11T23:35:18.091Z,96425.91
2023-12-11T23:37:45.656Z,96425.69
2023-12-11T23:40:13.526Z,96422.66
2023-12-11T23:42:41.151Z,96430.25
2023-12-11T23:45:10.690Z,96423.97
2023-12-11T23:47:38.783Z,96430.75
2023-12-11T23:50:08.028Z,96423.13
2023-12-11T23:52:35.750Z,96435.44
2023-12-11T23:55:04.293Z,96428.91
2023-12-11T23:57:32.158Z,96438.72
2023-12-11T23:59:59.948Z,96438.72
